createdAt,value
2023-05-12T00:00:30.253Z,136.71
2023-05-12T00:01:30.278Z,135.20
2023-05-12T00:02:30.366Z,135.35
2023-05-12T00:03:30.518Z,137.03
2023-05-12T00:04:30.382Z,136.64
2023-05-12T00:05:30.320Z,136.31
2023-05-12T00:06:30.315Z,135.07
2023-05-12T00:07:30.331Z,134.05
2023-05-12T00:08:30.324Z,133.75
2023-05-12T00:09:30.358Z,134.61
2023-05-12T00:10:30.367Z,133.03
2023-05-12T00:11:30.420Z,134.75
2023-05-12T00:12:30.368Z,135.72
2023-05-12T00:13:30.431Z,135.28
2023-05-12T00:14:30.420Z,135.36
2023-05-12T00:15:30.405Z,134.82
2023-05-12T00:16:30.426Z,134.58
2023-05-12T00:17:30.474Z,135.87
2023-05-12T00:18:30.477Z,135.51
2023-05-12T00:19:30.438Z,137.08
2023-05-12T00:20:30.465Z,134.94
2023-05-12T00:21:30.486Z,134.42
2023-05-12T00:22:30.463Z,135.87
2023-05-12T00:23:30.488Z,136.04
2023-05-12T00:24:30.516Z,135.64
2023-05-12T00:25:30.515Z,135.22
2023-05-12T00:26:30.512Z,133.62
2023-05-12T00:27:30.553Z,133.61
2023-05-12T00:28:30.589Z,135.52
2023-05-12T00:29:30.585Z,135.47
2023-05-12T00:30:30.600Z,135.62
2023-05-12T00:31:30.634Z,134.64
2023-05-12T00:32:30.699Z,135.20
2023-05-12T00:33:30.623Z,133.87
2023-05-12T00:34:30.679Z,134.77
2023-05-12T00:35:30.677Z,133.63
2023-05-12T00:36:30.652Z,134.55
2023-05-12T00:37:30.695Z,135.16
2023-05-12T00:38:30.726Z,133.94
2023-05-12T00:39:30.706Z,135.02
2023-05-12T00:40:30.747Z,132.43
2023-05-12T00:41:30.757Z,133.01
2023-05-12T00:42:30.780Z,133.06
2023-05-12T00:43:30.742Z,134.46
2023-05-12T00:44:30.761Z,134.73
2023-05-12T00:45:30.787Z,133.33
2023-05-12T00:46:30.921Z,132.32
2023-05-12T00:47:30.841Z,132.02
2023-05-12T00:48:30.808Z,131.55
2023-05-12T00:49:30.882Z,132.29
2023-05-12T00:50:30.851Z,132.60
2023-05-12T00:51:30.877Z,131.79
2023-05-12T00:52:30.887Z,131.19
2023-05-12T00:53:45.023Z,130.57
2023-05-12T00:54:31.888Z,130.68
2023-05-12T00:55:30.859Z,130.99
2023-05-12T00:56:30.860Z,131.38
2023-05-12T00:57:30.838Z,131.45
2023-05-12T00:58:30.866Z,132.04
2023-05-12T00:59:30.844Z,130.89
2023-05-12T01:00:30.825Z,131.83
2023-05-12T01:01:30.910Z,132.83
2023-05-12T01:02:30.910Z,130.52
2023-05-12T01:03:30.954Z,129.19
2023-05-12T01:04:30.810Z,130.38
2023-05-12T01:05:30.776Z,132.38
2023-05-12T01:06:30.777Z,132.06
2023-05-12T01:07:30.776Z,131.86
2023-05-12T01:08:30.806Z,132.77
2023-05-12T01:09:30.773Z,131.69
2023-05-12T01:10:30.750Z,132.50
2023-05-12T01:11:30.758Z,131.98
2023-05-12T01:12:30.721Z,132.02
2023-05-12T01:13:30.705Z,132.37
2023-05-12T01:14:30.720Z,130.97
2023-05-12T01:15:30.705Z,131.34
2023-05-12T01:16:30.704Z,132.38
2023-05-12T01:17:30.842Z,132.00
2023-05-12T01:18:30.788Z,130.72
2023-05-12T01:19:30.686Z,128.72
2023-05-12T01:20:30.655Z,127.88
2023-05-12T01:21:30.668Z,126.13
2023-05-12T01:22:30.656Z,126.35
2023-05-12T01:23:30.660Z,126.47
2023-05-12T01:24:30.741Z,126.25
2023-05-12T01:25:30.683Z,126.84
2023-05-12T01:26:30.695Z,126.93
2023-05-12T01:27:30.739Z,126.89
2023-05-12T01:28:30.757Z,125.97
2023-05-12T01:29:30.748Z,127.20
2023-05-12T01:30:30.751Z,126.23
2023-05-12T01:31:30.811Z,126.88
2023-05-12T01:32:30.834Z,126.18
2023-05-12T01:33:30.816Z,127.29
2023-05-12T01:34:30.829Z,126.02
2023-05-12T01:35:30.853Z,126.93
2023-05-12T01:36:30.828Z,125.88
2023-05-12T01:37:30.843Z,127.63
2023-05-12T01:38:30.864Z,127.41
2023-05-12T01:39:30.856Z,126.76
2023-05-12T01:40:30.867Z,128.41
2023-05-12T01:41:30.894Z,125.42
2023-05-12T01:42:30.897Z,126.52
2023-05-12T01:43:30.906Z,127.50
2023-05-12T01:44:30.924Z,126.61
2023-05-12T01:45:30.973Z,128.41
2023-05-12T01:46:30.962Z,128.21
2023-05-12T01:47:30.956Z,126.80
2023-05-12T01:48:30.995Z,127.03
2023-05-12T01:49:30.997Z,124.35
2023-05-12T01:50:31.015Z,125.22
2023-05-12T01:51:31.009Z,125.91
2023-05-12T01:52:31.028Z,125.97
2023-05-12T01:53:31.074Z,124.24
2023-05-12T01:54:31.073Z,124.50
2023-05-12T01:55:31.082Z,123.59
2023-05-12T01:56:31.064Z,124.39
2023-05-12T01:57:31.116Z,122.63
2023-05-12T01:58:31.120Z,125.03
2023-05-12T01:59:31.114Z,123.88
2023-05-12T02:00:31.131Z,122.79
2023-05-12T02:01:31.202Z,122.35
2023-05-12T02:02:31.246Z,124.49
2023-05-12T02:03:31.241Z,124.21
2023-05-12T02:04:31.164Z,125.04
2023-05-12T02:05:31.217Z,124.70
2023-05-12T02:06:31.230Z,125.74
2023-05-12T02:07:31.199Z,122.14
2023-05-12T02:08:31.240Z,124.23
2023-05-12T02:09:31.248Z,123.00
2023-05-12T02:10:31.270Z,124.60
2023-05-12T02:11:31.294Z,123.50
2023-05-12T02:12:31.305Z,123.88
2023-05-12T02:13:32.113Z,124.75
2023-05-12T02:14:31.332Z,123.98
2023-05-12T02:15:31.385Z,123.90
2023-05-12T02:16:31.408Z,122.24
2023-05-12T02:17:31.422Z,121.86
2023-05-12T02:18:31.479Z,121.87
2023-05-12T02:19:31.429Z,123.46
2023-05-12T02:20:31.418Z,122.62
2023-05-12T02:21:31.465Z,120.08
2023-05-12T02:22:31.440Z,120.48
2023-05-12T02:23:31.485Z,119.71
2023-05-12T02:24:31.502Z,118.53
2023-05-12T02:25:31.557Z,119.75
2023-05-12T02:26:31.533Z,119.93
2023-05-12T02:27:31.525Z,120.15
2023-05-12T02:28:31.540Z,119.72
2023-05-12T02:29:31.563Z,121.88
2023-05-12T02:30:31.555Z,121.53
2023-05-12T02:31:31.630Z,122.10
2023-05-12T02:32:31.644Z,120.96
2023-05-12T02:33:32.109Z,120.64
2023-05-12T02:34:31.635Z,120.90
2023-05-12T02:35:31.626Z,121.82
2023-05-12T02:36:31.674Z,121.60
2023-05-12T02:37:31.683Z,120.00
2023-05-12T02:38:31.708Z,122.54
2023-05-12T02:39:31.733Z,121.24
2023-05-12T02:40:31.724Z,122.32
2023-05-12T02:41:31.767Z,122.33
2023-05-12T02:42:31.798Z,120.38
2023-05-12T02:43:31.793Z,119.47
2023-05-12T02:44:31.796Z,121.10
2023-05-12T02:45:31.872Z,119.62
2023-05-12T02:46:31.814Z,121.20
2023-05-12T02:47:31.893Z,121.77
2023-05-12T02:48:31.868Z,121.18
2023-05-12T02:49:31.901Z,120.77
2023-05-12T02:50:31.876Z,122.17
2023-05-12T02:51:31.913Z,121.38
2023-05-12T02:52:31.946Z,121.20
2023-05-12T02:53:31.913Z,119.76
2023-05-12T02:54:31.956Z,120.00
2023-05-12T02:55:31.962Z,120.33
2023-05-12T02:56:33.887Z,120.25
2023-05-12T02:57:31.995Z,119.42
2023-05-12T02:58:31.997Z,120.71
2023-05-12T02:59:32.016Z,120.31
2023-05-12T03:00:32.016Z,119.06
2023-05-12T03:01:32.088Z,120.01
2023-05-12T03:02:32.113Z,120.37
2023-05-12T03:03:32.121Z,119.17
2023-05-12T03:04:32.078Z,119.57
2023-05-12T03:05:32.078Z,121.13
2023-05-12T03:06:32.117Z,120.07
2023-05-12T03:07:32.132Z,120.00
2023-05-12T03:08:32.123Z,118.77
2023-05-12T03:09:32.162Z,119.13
2023-05-12T03:10:32.192Z,115.59
2023-05-12T03:11:32.262Z,117.07
2023-05-12T03:12:32.215Z,119.66
2023-05-12T03:13:32.221Z,118.70
2023-05-12T03:14:32.221Z,119.83
2023-05-12T03:15:32.233Z,119.55
2023-05-12T03:16:32.295Z,117.49
2023-05-12T03:17:32.347Z,116.39
2023-05-12T03:18:32.336Z,118.82
2023-05-12T03:19:32.327Z,116.31
2023-05-12T03:20:32.334Z,117.43
2023-05-12T03:21:32.369Z,115.52
2023-05-12T03:22:32.358Z,115.77
2023-05-12T03:23:32.378Z,115.55
2023-05-12T03:24:32.384Z,115.07
2023-05-12T03:25:32.395Z,116.31
2023-05-12T03:26:32.415Z,116.32
2023-05-12T03:27:32.434Z,116.11
2023-05-12T03:28:32.461Z,114.20
2023-05-12T03:29:32.520Z,113.89
2023-05-12T03:30:32.472Z,115.27
2023-05-12T03:31:32.588Z,113.53
2023-05-12T03:32:32.574Z,115.09
2023-05-12T03:33:32.573Z,117.43
2023-05-12T03:34:32.585Z,118.42
2023-05-12T03:35:32.605Z,118.07
2023-05-12T03:36:32.611Z,115.84
2023-05-12T03:37:32.601Z,116.17
2023-05-12T03:38:32.624Z,116.96
2023-05-12T03:39:32.652Z,115.16
2023-05-12T03:40:32.692Z,116.48
2023-05-12T03:41:32.671Z,117.83
2023-05-12T03:42:32.713Z,115.76
2023-05-12T03:43:32.731Z,116.19
2023-05-12T03:44:32.751Z,115.36
2023-05-12T03:45:32.742Z,115.54
2023-05-12T03:46:32.805Z,114.04
2023-05-12T03:47:32.887Z,113.18
2023-05-12T03:48:32.850Z,114.36
2023-05-12T03:49:32.855Z,114.64
2023-05-12T03:50:32.860Z,115.27
2023-05-12T03:51:32.845Z,113.87
2023-05-12T03:52:32.888Z,115.09
2023-05-12T03:53:32.883Z,111.70
2023-05-12T03:54:32.904Z,114.06
2023-05-12T03:55:32.954Z,114.25
2023-05-12T03:56:32.928Z,114.35
2023-05-12T03:57:32.967Z,113.66
2023-05-12T03:58:32.975Z,114.27
2023-05-12T03:59:32.993Z,112.98
2023-05-12T04:00:33.015Z,112.68
2023-05-12T04:01:33.114Z,113.28
2023-05-12T04:02:33.122Z,113.79
2023-05-12T04:03:33.146Z,112.22
2023-05-12T04:04:33.093Z,112.72
2023-05-12T04:05:33.088Z,113.32
2023-05-12T04:06:33.114Z,114.00
2023-05-12T04:07:33.117Z,115.33
2023-05-12T04:08:33.143Z,114.35
2023-05-12T04:09:33.194Z,113.86
2023-05-12T04:10:33.204Z,113.63
2023-05-12T04:11:33.184Z,112.95
2023-05-12T04:12:33.217Z,113.52
2023-05-12T04:13:33.230Z,113.34
2023-05-12T04:14:42.227Z,112.82
2023-05-12T04:15:34.231Z,112.91
2023-05-12T04:16:33.262Z,113.29
2023-05-12T04:17:33.250Z,113.83
2023-05-12T04:18:33.242Z,113.36
2023-05-12T04:19:33.242Z,112.63
2023-05-12T04:20:33.216Z,113.58
2023-05-12T04:21:33.209Z,113.24
2023-05-12T04:22:33.206Z,112.69
2023-05-12T04:23:33.171Z,112.39
2023-05-12T04:24:33.187Z,111.84
2023-05-12T04:25:33.147Z,112.37
2023-05-12T04:26:33.162Z,112.79
2023-05-12T04:27:33.153Z,112.95
2023-05-12T04:28:33.150Z,111.15
2023-05-12T04:29:33.152Z,111.77
2023-05-12T04:30:33.116Z,111.61
2023-05-12T04:31:33.159Z,114.14
2023-05-12T04:32:33.169Z,114.03
2023-05-12T04:33:33.094Z,116.18
2023-05-12T04:34:33.119Z,117.37
2023-05-12T04:35:33.131Z,117.38
2023-05-12T04:36:33.104Z,115.03
2023-05-12T04:37:33.141Z,115.10
2023-05-12T04:38:33.133Z,116.42
2023-05-12T04:39:33.168Z,117.23
2023-05-12T04:40:34.886Z,117.93
2023-05-12T04:41:33.207Z,118.86
2023-05-12T04:42:33.223Z,117.66
2023-05-12T04:44:33.232Z,119.11
2023-05-12T04:45:33.223Z,119.31
2023-05-12T04:46:33.384Z,118.14
2023-05-12T04:47:33.234Z,119.34
2023-05-12T04:48:33.221Z,118.88
2023-05-12T04:49:33.209Z,119.61
2023-05-12T04:50:33.196Z,118.07
2023-05-12T04:51:33.225Z,118.32
2023-05-12T04:52:33.154Z,117.78
2023-05-12T04:53:33.161Z,115.64
2023-05-12T04:54:33.149Z,115.75
2023-05-12T04:55:33.165Z,114.66
2023-05-12T04:56:33.129Z,114.81
2023-05-12T04:57:33.144Z,115.05
2023-05-12T04:58:33.139Z,113.26
2023-05-12T04:59:33.107Z,112.84
2023-05-12T05:00:40.160Z,113.30
2023-05-12T05:01:33.209Z,113.57
2023-05-12T05:02:33.157Z,113.68
2023-05-12T05:03:33.203Z,113.56
2023-05-12T05:04:33.106Z,113.53
2023-05-12T05:05:33.050Z,112.81
2023-05-12T05:06:33.062Z,113.18
2023-05-12T05:07:33.066Z,110.74
2023-05-12T05:08:33.077Z,111.94
2023-05-12T05:09:34.930Z,111.53
2023-05-12T05:10:33.017Z,111.60
2023-05-12T05:11:33.050Z,110.04
2023-05-12T05:12:33.015Z,111.77
2023-05-12T05:13:33.001Z,109.77
2023-05-12T05:14:33.031Z,110.21
2023-05-12T05:15:32.997Z,109.48
2023-05-12T05:16:32.996Z,109.97
2023-05-12T05:17:33.002Z,110.89
2023-05-12T05:18:32.972Z,110.29
2023-05-12T05:19:46.111Z,109.06
2023-05-12T05:20:34.058Z,109.29
2023-05-12T05:21:32.972Z,109.43
2023-05-12T05:22:32.928Z,109.68
2023-05-12T05:23:32.939Z,109.55
2023-05-12T05:24:32.945Z,109.38
2023-05-12T05:25:32.949Z,109.00
2023-05-12T05:26:32.917Z,108.30
2023-05-12T05:27:32.950Z,106.71
2023-05-12T05:28:32.926Z,108.57
2023-05-12T05:29:32.885Z,108.20
2023-05-12T05:30:32.884Z,109.20
2023-05-12T05:31:32.943Z,107.44
2023-05-12T05:32:32.937Z,107.58
2023-05-12T05:33:32.908Z,102.85
2023-05-12T05:34:32.957Z,96.33
2023-05-12T05:35:33.288Z,95.03
2023-05-12T05:36:32.890Z,93.28
2023-05-12T05:37:32.909Z,95.19
2023-05-12T05:38:32.837Z,98.01
2023-05-12T05:39:33.139Z,98.83
2023-05-12T05:40:44.975Z,119.86
2023-05-12T05:41:33.829Z,107.66
2023-05-12T05:42:32.789Z,101.18
2023-05-12T05:43:32.808Z,94.55
2023-05-12T05:44:32.831Z,90.94
2023-05-12T05:45:40.284Z,91.72
2023-05-12T05:46:32.901Z,102.15
2023-05-12T05:47:32.883Z,92.18
2023-05-12T05:48:32.867Z,82.95
2023-05-12T05:49:32.853Z,72.45
2023-05-12T05:50:32.809Z,67.47
2023-05-12T05:51:32.790Z,55.30
2023-05-12T05:52:32.817Z,46.14
2023-05-12T05:53:32.804Z,38.55
2023-05-12T05:54:32.783Z,34.70
2023-05-12T05:55:32.812Z,32.29
2023-05-12T05:56:32.764Z,25.63
2023-05-12T05:57:32.759Z,25.00
2023-05-12T05:58:32.800Z,25.39
2023-05-12T05:59:32.754Z,25.91
2023-05-12T06:00:32.723Z,25.46
2023-05-12T06:01:32.778Z,25.35
2023-05-12T06:02:32.982Z,25.00
2023-05-12T06:03:32.845Z,25.00
2023-05-12T06:04:32.741Z,25.27
2023-05-12T06:05:32.777Z,25.00
2023-05-12T06:06:32.691Z,25.94
2023-05-12T06:07:32.679Z,29.69
2023-05-12T06:08:32.713Z,31.48
2023-05-12T06:09:32.701Z,31.21
2023-05-12T06:10:32.667Z,25.00
2023-05-12T06:11:32.673Z,25.00
2023-05-12T06:12:32.671Z,25.60
2023-05-12T06:13:32.632Z,26.96
2023-05-12T06:14:32.653Z,26.19
2023-05-12T06:15:32.654Z,25.00
2023-05-12T06:16:32.694Z,25.00
2023-05-12T06:17:32.872Z,25.85
2023-05-12T06:18:32.694Z,25.09
2023-05-12T06:19:32.680Z,25.55
2023-05-12T06:20:32.688Z,26.24
2023-05-12T06:21:32.717Z,28.37
2023-05-12T06:22:32.754Z,29.72
2023-05-12T06:23:32.783Z,29.39
2023-05-12T06:24:32.800Z,28.72
2023-05-12T06:25:33.268Z,29.53
2023-05-12T06:26:32.881Z,29.19
2023-05-12T06:27:32.915Z,28.11
2023-05-12T06:28:33.003Z,28.10
2023-05-12T06:29:32.977Z,29.55
2023-05-12T06:30:33.036Z,29.60
2023-05-12T06:31:33.124Z,29.69
2023-05-12T06:32:33.150Z,27.85
2023-05-12T06:33:33.154Z,29.94
2023-05-12T06:34:33.167Z,31.40
2023-05-12T06:35:33.212Z,30.38
2023-05-12T06:36:33.289Z,30.04
2023-05-12T06:37:33.283Z,28.08
2023-05-12T06:38:33.419Z,25.10
2023-05-12T06:39:33.406Z,25.11
2023-05-12T06:40:33.737Z,26.48
2023-05-12T06:41:33.512Z,31.95
2023-05-12T06:42:33.528Z,32.49
2023-05-12T06:43:33.572Z,30.03
2023-05-12T06:44:33.639Z,28.58
2023-05-12T06:45:33.683Z,28.55
2023-05-12T06:46:33.842Z,25.00
2023-05-12T06:47:33.835Z,26.66
2023-05-12T06:48:33.881Z,27.45
2023-05-12T06:49:33.950Z,29.52
2023-05-12T06:50:34.066Z,27.99
2023-05-12T06:51:34.070Z,25.33
2023-05-12T06:52:34.116Z,25.00
2023-05-12T06:53:34.167Z,25.40
2023-05-12T06:54:34.239Z,26.96
2023-05-12T06:55:34.359Z,29.24
2023-05-12T06:56:34.333Z,31.30
2023-05-12T06:57:34.455Z,33.93
2023-05-12T06:58:34.501Z,31.59
2023-05-12T06:59:34.533Z,27.62
2023-05-12T07:00:34.741Z,25.00
2023-05-12T07:01:34.705Z,25.12
2023-05-12T07:02:34.738Z,25.00
2023-05-12T07:03:34.851Z,25.07
2023-05-12T07:04:34.815Z,25.00
2023-05-12T07:05:34.888Z,25.00
2023-05-12T07:06:34.921Z,25.56
2023-05-12T07:07:35.005Z,25.23
2023-05-12T07:08:35.072Z,26.45
2023-05-12T07:09:35.088Z,29.80
2023-05-12T07:10:35.137Z,33.79
2023-05-12T07:11:35.186Z,34.74
2023-05-12T07:12:35.192Z,37.00
2023-05-12T07:13:35.257Z,36.48
2023-05-12T07:14:35.279Z,34.60
2023-05-12T07:15:35.375Z,33.49
2023-05-12T07:16:35.522Z,32.16
2023-05-12T07:17:35.455Z,31.43
2023-05-12T07:18:35.464Z,31.38
2023-05-12T07:19:35.540Z,32.22
2023-05-12T07:20:35.585Z,33.02
2023-05-12T07:21:35.645Z,33.97
2023-05-12T07:22:38.499Z,32.90
2023-05-12T07:23:35.652Z,35.90
2023-05-12T07:24:35.658Z,38.22
2023-05-12T07:25:35.815Z,40.27
2023-05-12T07:26:35.659Z,57.63
2023-05-12T07:27:35.655Z,71.16
2023-05-12T07:28:35.618Z,88.48
2023-05-12T07:29:35.624Z,106.18
2023-05-12T07:30:35.705Z,115.23
2023-05-12T07:31:35.666Z,127.73
2023-05-12T07:32:35.639Z,112.87
2023-05-12T07:33:35.573Z,126.86
2023-05-12T07:34:35.608Z,136.51
2023-05-12T07:35:35.858Z,149.37
2023-05-12T07:36:35.576Z,114.00
2023-05-12T07:37:35.606Z,82.16
2023-05-12T07:38:35.561Z,76.38
2023-05-12T07:39:35.555Z,84.31
2023-05-12T07:40:40.293Z,112.41
2023-05-12T07:41:35.581Z,113.52
2023-05-12T07:42:35.511Z,117.70
2023-05-12T07:43:35.481Z,122.66
2023-05-12T07:44:35.523Z,121.40
2023-05-12T07:45:35.526Z,125.94
2023-05-12T07:46:35.813Z,122.12
2023-05-12T07:47:36.361Z,106.20
2023-05-12T07:48:35.477Z,86.00
2023-05-12T07:49:35.447Z,101.96
2023-05-12T07:50:35.598Z,115.77
2023-05-12T07:51:35.467Z,121.37
2023-05-12T07:52:35.516Z,113.20
2023-05-12T07:53:35.458Z,89.84
2023-05-12T07:54:35.458Z,80.21
2023-05-12T07:55:35.407Z,84.25
2023-05-12T07:56:35.435Z,86.73
2023-05-12T07:57:35.417Z,98.41
2023-05-12T07:58:35.496Z,107.19
2023-05-12T07:59:35.418Z,114.53
2023-05-12T08:00:35.406Z,123.30
2023-05-12T08:01:35.785Z,132.41
2023-05-12T08:02:35.514Z,145.16
2023-05-12T08:03:35.473Z,150.03
2023-05-12T08:04:35.563Z,152.81
2023-05-12T08:05:35.358Z,158.30
2023-05-12T08:06:35.793Z,161.26
2023-05-12T08:07:35.453Z,165.10
2023-05-12T08:08:35.461Z,170.59
2023-05-12T08:09:35.485Z,174.43
2023-05-12T08:10:35.520Z,181.39
2023-05-12T08:11:35.788Z,184.80
2023-05-12T08:12:36.251Z,186.90
2023-05-12T08:13:35.606Z,188.19
2023-05-12T08:14:35.642Z,193.06
2023-05-12T08:15:35.648Z,195.85
2023-05-12T08:16:35.708Z,190.07
2023-05-12T08:17:35.733Z,195.53
2023-05-12T08:18:35.734Z,201.28
2023-05-12T08:19:35.663Z,204.00
2023-05-12T08:20:35.788Z,207.42
2023-05-12T08:21:35.671Z,205.84
2023-05-12T08:22:35.709Z,209.80
2023-05-12T08:23:35.732Z,212.10
2023-05-12T08:24:35.696Z,214.52
2023-05-12T08:25:35.720Z,216.10
2023-05-12T08:26:35.676Z,226.88
2023-05-12T08:27:35.698Z,225.03
2023-05-12T08:28:36.280Z,224.14
2023-05-12T08:29:35.702Z,228.01
2023-05-12T08:30:35.792Z,229.39
2023-05-12T08:31:35.836Z,225.40
2023-05-12T08:32:35.742Z,225.64
2023-05-12T08:33:36.422Z,203.93
2023-05-12T08:34:35.746Z,190.87
2023-05-12T08:35:35.692Z,191.93
2023-05-12T08:36:35.711Z,185.25
2023-05-12T08:37:35.690Z,179.64
2023-05-12T08:38:35.686Z,170.65
2023-05-12T08:39:35.705Z,165.33
2023-05-12T08:40:35.721Z,164.22
2023-05-12T08:41:35.714Z,167.61
2023-05-12T08:42:36.714Z,167.85
2023-05-12T08:43:35.698Z,169.77
2023-05-12T08:44:35.703Z,175.25
2023-05-12T08:45:35.670Z,182.56
2023-05-12T08:46:35.865Z,197.82
2023-05-12T08:47:35.718Z,202.90
2023-05-12T08:48:35.686Z,206.09
2023-05-12T08:49:35.680Z,204.73
2023-05-12T08:50:35.652Z,206.22
2023-05-12T08:51:35.815Z,204.02
2023-05-12T08:52:35.663Z,194.89
2023-05-12T08:53:35.660Z,190.60
2023-05-12T08:54:42.423Z,191.69
2023-05-12T08:55:36.584Z,191.07
2023-05-12T08:57:36.410Z,181.40
2023-05-12T08:58:40.865Z,186.48
2023-05-12T08:59:36.590Z,191.80
2023-05-12T09:00:35.671Z,189.78
2023-05-12T09:01:36.903Z,192.60
2023-05-12T09:02:51.462Z,196.39
2023-05-12T09:03:36.666Z,191.91
2023-05-12T09:04:35.588Z,193.39
2023-05-12T09:05:35.532Z,195.54
2023-05-12T09:06:35.565Z,199.68
2023-05-12T09:07:35.510Z,207.90
2023-05-12T09:08:35.786Z,197.77
2023-05-12T09:09:35.531Z,195.18
2023-05-12T09:10:35.953Z,195.04
2023-05-12T09:11:35.567Z,197.79
2023-05-12T09:12:35.479Z,197.05
2023-05-12T09:13:35.545Z,192.48
2023-05-12T09:14:35.600Z,186.14
2023-05-12T09:15:35.668Z,194.19
2023-05-12T09:16:35.801Z,191.07
2023-05-12T09:17:35.845Z,192.22
2023-05-12T09:18:35.834Z,185.09
2023-05-12T09:19:35.866Z,170.98
2023-05-12T09:20:36.020Z,149.79
2023-05-12T09:21:36.825Z,163.31
2023-05-12T09:22:35.970Z,163.27
2023-05-12T09:23:35.991Z,156.89
2023-05-12T09:24:37.023Z,145.93
2023-05-12T09:25:36.012Z,117.92
2023-05-12T09:26:35.973Z,130.78
2023-05-12T09:27:35.988Z,147.37
2023-05-12T09:28:35.980Z,165.63
2023-05-12T09:29:42.436Z,170.51
2023-05-12T09:30:36.995Z,170.74
2023-05-12T09:31:36.138Z,171.95
2023-05-12T09:32:36.035Z,175.82
2023-05-12T09:33:35.957Z,174.42
2023-05-12T09:34:35.962Z,165.10
2023-05-12T09:35:35.956Z,156.22
2023-05-12T09:36:35.927Z,156.11
2023-05-12T09:37:35.938Z,166.97
2023-05-12T09:38:35.922Z,172.45
2023-05-12T09:39:35.909Z,169.95
2023-05-12T09:40:36.066Z,174.44
2023-05-12T09:41:35.890Z,187.85
2023-05-12T09:42:36.826Z,176.32
2023-05-12T09:43:35.871Z,164.75
2023-05-12T09:44:35.883Z,155.95
2023-05-12T09:45:35.903Z,151.80
2023-05-12T09:46:39.930Z,164.37
2023-05-12T09:47:35.932Z,164.74
2023-05-12T09:48:35.881Z,165.96
2023-05-12T09:49:35.901Z,173.74
2023-05-12T09:50:46.592Z,185.35
2023-05-12T09:51:36.880Z,166.02
2023-05-12T09:52:36.383Z,170.98
2023-05-12T09:53:35.880Z,179.18
2023-05-12T09:54:35.832Z,187.59
2023-05-12T09:55:35.823Z,187.61
2023-05-12T09:56:35.838Z,190.57
2023-05-12T09:57:35.827Z,174.98
2023-05-12T09:58:35.820Z,169.41
2023-05-12T09:59:35.824Z,169.06
2023-05-12T10:00:52.402Z,168.74
2023-05-12T10:01:36.832Z,169.45
2023-05-12T10:02:35.983Z,169.09
2023-05-12T10:03:35.785Z,157.01
2023-05-12T10:04:35.766Z,150.91
2023-05-12T10:05:35.760Z,150.72
2023-05-12T10:06:35.763Z,144.79
2023-05-12T10:07:35.767Z,136.88
2023-05-12T10:08:35.782Z,132.98
2023-05-12T10:09:35.782Z,122.04
2023-05-12T10:10:35.740Z,117.81
2023-05-12T10:11:35.715Z,120.08
2023-05-12T10:12:35.768Z,128.00
2023-05-12T10:13:35.704Z,130.04
2023-05-12T10:14:35.722Z,135.61
2023-05-12T10:15:35.714Z,144.07
2023-05-12T10:16:35.799Z,137.90
2023-05-12T10:17:35.850Z,113.38
2023-05-12T10:18:35.710Z,108.82
2023-05-12T10:19:35.710Z,104.62
2023-05-12T10:20:35.653Z,92.29
2023-05-12T10:21:35.652Z,80.63
2023-05-12T10:22:35.833Z,75.64
2023-05-12T10:23:37.794Z,72.54
2023-05-12T10:24:35.706Z,80.12
2023-05-12T10:25:35.752Z,81.62
2023-05-12T10:26:35.737Z,86.51
2023-05-12T10:27:35.845Z,85.98
2023-05-12T10:28:35.760Z,101.33
2023-05-12T10:29:35.821Z,105.00
2023-05-12T10:30:35.826Z,110.76
2023-05-12T10:31:35.812Z,111.13
2023-05-12T10:32:35.889Z,108.33
2023-05-12T10:33:35.845Z,117.13
2023-05-12T10:34:35.861Z,130.60
2023-05-12T10:35:35.865Z,123.19
2023-05-12T10:36:35.876Z,115.52
2023-05-12T10:37:36.386Z,109.77
2023-05-12T10:38:35.885Z,104.76
2023-05-12T10:39:35.939Z,107.23
2023-05-12T10:40:35.927Z,107.56
2023-05-12T10:41:36.004Z,116.64
2023-05-12T10:42:35.959Z,125.19
2023-05-12T10:43:35.925Z,130.83
2023-05-12T10:44:36.035Z,136.99
2023-05-12T10:45:35.976Z,147.81
2023-05-12T10:46:36.116Z,150.47
2023-05-12T10:47:36.079Z,148.26
2023-05-12T10:48:35.994Z,140.83
2023-05-12T10:49:36.023Z,143.82
2023-05-12T10:50:36.067Z,149.37
2023-05-12T10:51:36.071Z,144.72
2023-05-12T10:52:36.328Z,147.19
2023-05-12T10:53:48.191Z,149.78
2023-05-12T10:54:37.110Z,149.99
2023-05-12T10:55:36.200Z,150.79
2023-05-12T10:56:36.338Z,152.30
2023-05-12T10:57:36.216Z,153.16
2023-05-12T10:58:36.677Z,151.22
2023-05-12T10:59:36.380Z,154.55
2023-05-12T11:00:36.788Z,156.73
2023-05-12T11:01:36.531Z,155.31
2023-05-12T11:02:37.848Z,160.13
2023-05-12T11:03:36.988Z,158.21
2023-05-12T11:04:36.113Z,160.26
2023-05-12T11:05:36.152Z,161.07
2023-05-12T11:06:36.486Z,160.05
2023-05-12T11:07:37.278Z,155.01
2023-05-12T11:08:36.187Z,154.85
2023-05-12T11:09:36.911Z,152.49
2023-05-12T11:10:36.034Z,153.70
2023-05-12T11:11:36.398Z,150.50
2023-05-12T11:12:36.195Z,146.47
2023-05-12T11:13:36.369Z,141.35
2023-05-12T11:14:36.028Z,141.85
2023-05-12T11:15:35.980Z,143.20
2023-05-12T11:16:36.026Z,135.29
2023-05-12T11:17:35.963Z,131.55
2023-05-12T11:18:36.033Z,129.24
2023-05-12T11:19:35.906Z,129.88
2023-05-12T11:20:35.956Z,134.12
2023-05-12T11:21:35.909Z,130.18
2023-05-12T11:22:35.932Z,131.89
2023-05-12T11:23:36.351Z,134.05
2023-05-12T11:24:35.883Z,135.16
2023-05-12T11:25:35.871Z,134.72
2023-05-12T11:26:35.900Z,138.88
2023-05-12T11:27:35.873Z,140.82
2023-05-12T11:28:36.436Z,136.17
2023-05-12T11:29:35.837Z,134.63
2023-05-12T11:30:35.884Z,126.33
2023-05-12T11:31:35.919Z,125.79
2023-05-12T11:32:35.871Z,118.40
2023-05-12T11:33:35.877Z,119.92
2023-05-12T11:34:35.870Z,119.60
2023-05-12T11:35:35.818Z,118.03
2023-05-12T11:36:35.827Z,111.23
2023-05-12T11:37:35.806Z,104.78
2023-05-12T11:38:35.883Z,104.78
2023-05-12T11:39:35.751Z,98.43
2023-05-12T11:40:35.813Z,98.89
2023-05-12T11:41:35.748Z,95.98
2023-05-12T11:42:35.768Z,94.19
2023-05-12T11:43:35.774Z,93.93
2023-05-12T11:44:35.758Z,92.01
2023-05-12T11:45:35.780Z,94.51
2023-05-12T11:46:35.738Z,95.70
2023-05-12T11:47:35.766Z,90.10
2023-05-12T11:48:35.746Z,85.66
2023-05-12T11:49:35.703Z,78.62
2023-05-12T11:50:35.693Z,70.66
2023-05-12T11:51:35.702Z,60.05
2023-05-12T11:52:35.709Z,49.58
2023-05-12T11:53:35.694Z,41.80
2023-05-12T11:54:35.680Z,39.18
2023-05-12T11:55:35.649Z,41.27
2023-05-12T11:56:35.703Z,45.87
2023-05-12T11:57:35.648Z,38.95
2023-05-12T11:58:35.798Z,41.95
2023-05-12T11:59:35.646Z,42.98
2023-05-12T12:00:35.765Z,43.61
2023-05-12T12:01:35.638Z,33.07
2023-05-12T12:02:35.735Z,26.32
2023-05-12T12:03:35.749Z,27.58
2023-05-12T12:04:35.791Z,31.07
2023-05-12T12:05:35.602Z,29.59
2023-05-12T12:06:35.588Z,37.24
2023-05-12T12:07:35.625Z,32.14
2023-05-12T12:08:35.565Z,37.16
2023-05-12T12:09:35.575Z,38.30
2023-05-12T12:10:35.595Z,37.20
2023-05-12T12:11:35.533Z,37.70
2023-05-12T12:12:35.559Z,41.01
2023-05-12T12:13:35.553Z,37.08
2023-05-12T12:14:35.519Z,24.61
2023-05-12T12:15:35.511Z,32.62
2023-05-12T12:16:35.637Z,38.33
2023-05-12T12:17:35.601Z,38.19
2023-05-12T12:18:35.659Z,41.96
2023-05-12T12:19:35.647Z,46.57
2023-05-12T12:20:35.649Z,51.31
2023-05-12T12:21:35.691Z,54.61
2023-05-12T12:22:35.684Z,58.97
2023-05-12T12:23:47.390Z,59.75
2023-05-12T12:24:36.754Z,59.76
2023-05-12T12:25:35.716Z,50.96
2023-05-12T12:26:36.437Z,48.35
2023-05-12T12:27:35.704Z,42.85
2023-05-12T12:28:35.684Z,38.95
2023-05-12T12:29:35.714Z,31.73
2023-05-12T12:30:35.709Z,27.59
2023-05-12T12:31:35.742Z,24.96
2023-05-12T12:32:35.672Z,26.50
2023-05-12T12:33:35.684Z,28.54
2023-05-12T12:34:35.645Z,24.25
2023-05-12T12:35:35.654Z,25.00
2023-05-12T12:36:35.715Z,25.69